sensor_id;sensor_type;location;lat;lon;timestamp;P1;durP1;ratioP1;P2;durP2;ratioP2
29774;SDS011;16676;51.202;6.774;2024-03-23T00:55:41;3.05;;;1.90;;
29774;SDS011;16676;51.202;6.774;2024-03-23T00:59:43;3.75;;;1.85;;
29774;SDS011;16676;51.202;6.774;2024-03-23T01:03:45;2.55;;;1.50;;
29774;SDS011;16676;51.202;6.774;2024-03-23T01:07:47;2.70;;;1.80;;
29774;SDS011;16676;51.202;6.774;2024-03-23T01:11:50;1.88;;;1.58;;
29774;SDS011;16676;51.202;6.774;2024-03-23T01:15:53;3.45;;;1.85;;
29774;SDS011;16676;51.202;6.774;2024-03-23T01:19:56;3.72;;;1.88;;
29774;SDS011;16676;51.202;6.774;2024-03-23T01:23:57;2.70;;;1.73;;
29774;SDS011;16676;51.202;6.774;2024-03-23T01:28:01;3.08;;;1.88;;
29774;SDS011;16676;51.202;6.774;2024-03-23T01:32:03;2.50;;;1.63;;
29774;SDS011;16676;51.202;6.774;2024-03-23T01:36:06;3.03;;;1.90;;
29774;SDS011;16676;51.202;6.774;2024-03-23T01:40:09;2.63;;;1.73;;
29774;SDS011;16676;51.202;6.774;2024-03-23T01:44:15;3.03;;;1.67;;
29774;SDS011;16676;51.202;6.774;2024-03-23T01:48:17;3.00;;;1.70;;
29774;SDS011;16676;51.202;6.774;2024-03-23T01:52:20;2.17;;;1.48;;
29774;SDS011;16676;51.202;6.774;2024-03-23T01:56:22;2.88;;;1.80;;
29774;SDS011;16676;51.202;6.774;2024-03-23T02:00:25;4.13;;;1.80;;
29774;SDS011;16676;51.202;6.774;2024-03-23T02:04:28;5.25;;;1.90;;
29774;SDS011;16676;51.202;6.774;2024-03-23T02:08:29;2.97;;;1.70;;
29774;SDS011;16676;51.202;6.774;2024-03-23T02:12:32;3.97;;;1.80;;
29774;SDS011;16676;51.202;6.774;2024-03-23T02:16:36;2.72;;;1.42;;
29774;SDS011;16676;51.202;6.774;2024-03-23T02:20:38;3.35;;;1.88;;
29774;SDS011;16676;51.202;6.774;2024-03-23T02:24:40;2.53;;;1.60;;
29774;SDS011;16676;51.202;6.774;2024-03-23T02:28:42;2.22;;;1.50;;
29774;SDS011;16676;51.202;6.774;2024-03-23T02:32:44;3.47;;;1.73;;
29774;SDS011;16676;51.202;6.774;2024-03-23T02:36:46;2.28;;;1.40;;
29774;SDS011;16676;51.202;6.774;2024-03-23T02:40:50;3.22;;;1.30;;
29774;SDS011;16676;51.202;6.774;2024-03-23T02:44:51;3.75;;;1.63;;
29774;SDS011;16676;51.202;6.774;2024-03-23T02:48:54;3.17;;;1.48;;
29774;SDS011;16676;51.202;6.774;2024-03-23T02:52:57;2.92;;;1.50;;
29774;SDS011;16676;51.202;6.774;2024-03-23T02:57:00;2.25;;;1.25;;
29774;SDS011;16676;51.202;6.774;2024-03-23T03:01:02;2.05;;;1.42;;
29774;SDS011;16676;51.202;6.774;2024-03-23T03:05:04;2.63;;;1.30;;
29774;SDS011;16676;51.202;6.774;2024-03-23T03:09:09;2.53;;;1.55;;
29774;SDS011;16676;51.202;6.774;2024-03-23T03:13:12;2.25;;;1.50;;
29774;SDS011;16676;51.202;6.774;2024-03-23T03:17:14;2.75;;;1.58;;
29774;SDS011;16676;51.202;6.774;2024-03-23T03:21:16;2.67;;;1.55;;
29774;SDS011;16676;51.202;6.774;2024-03-23T03:25:19;2.35;;;1.73;;
29774;SDS011;16676;51.202;6.774;2024-03-23T03:29:21;2.53;;;1.50;;
29774;SDS011;16676;51.202;6.774;2024-03-23T03:33:23;3.00;;;1.58;;
29774;SDS011;16676;51.202;6.774;2024-03-23T03:37:25;2.53;;;1.45;;
29774;SDS011;16676;51.202;6.774;2024-03-23T03:41:27;2.20;;;1.23;;
29774;SDS011;16676;51.202;6.774;2024-03-23T03:45:30;1.55;;;1.35;;
29774;SDS011;16676;51.202;6.774;2024-03-23T03:49:32;3.50;;;1.40;;
29774;SDS011;16676;51.202;6.774;2024-03-23T03:53:34;2.30;;;1.35;;
29774;SDS011;16676;51.202;6.774;2024-03-23T03:57:36;2.55;;;1.63;;
29774;SDS011;16676;51.202;6.774;2024-03-23T04:01:38;1.38;;;1.15;;
29774;SDS011;16676;51.202;6.774;2024-03-23T04:05:40;2.33;;;1.30;;
29774;SDS011;16676;51.202;6.774;2024-03-23T04:09:42;2.15;;;1.30;;
29774;SDS011;16676;51.202;6.774;2024-03-23T04:13:43;1.92;;;1.40;;
29774;SDS011;16676;51.202;6.774;2024-03-23T04:17:47;2.72;;;1.70;;
29774;SDS011;16676;51.202;6.774;2024-03-23T04:21:49;2.17;;;1.20;;
29774;SDS011;16676;51.202;6.774;2024-03-23T04:25:50;3.70;;;1.50;;
29774;SDS011;16676;51.202;6.774;2024-03-23T04:29:54;2.40;;;1.42;;
29774;SDS011;16676;51.202;6.774;2024-03-23T04:33:57;2.92;;;1.30;;
29774;SDS011;16676;51.202;6.774;2024-03-23T04:37:59;2.70;;;1.35;;
29774;SDS011;16676;51.202;6.774;2024-03-23T04:42:01;2.55;;;1.48;;
29774;SDS011;16676;51.202;6.774;2024-03-23T04:46:04;4.35;;;1.55;;
29774;SDS011;16676;51.202;6.774;2024-03-23T04:50:08;1.67;;;1.33;;
29774;SDS011;16676;51.202;6.774;2024-03-23T04:54:10;2.80;;;1.00;;
29774;SDS011;16676;51.202;6.774;2024-03-23T04:58:12;1.45;;;1.20;;
29774;SDS011;16676;51.202;6.774;2024-03-23T05:02:14;2.67;;;1.33;;
29774;SDS011;16676;51.202;6.774;2024-03-23T05:06:18;1.20;;;1.08;;
29774;SDS011;16676;51.202;6.774;2024-03-23T05:10:19;1.65;;;1.08;;
29774;SDS011;16676;51.202;6.774;2024-03-23T05:14:21;2.72;;;1.42;;
29774;SDS011;16676;51.202;6.774;2024-03-23T05:18:23;2.22;;;1.40;;
29774;SDS011;16676;51.202;6.774;2024-03-23T05:22:28;1.80;;;1.10;;
29774;SDS011;16676;51.202;6.774;2024-03-23T05:26:31;1.75;;;1.00;;
29774;SDS011;16676;51.202;6.774;2024-03-23T05:30:34;1.70;;;1.00;;
29774;SDS011;16676;51.202;6.774;2024-03-23T05:34:36;2.20;;;1.20;;
29774;SDS011;16676;51.202;6.774;2024-03-23T05:38:39;1.90;;;1.17;;
29774;SDS011;16676;51.202;6.774;2024-03-23T05:42:41;2.22;;;1.15;;
29774;SDS011;16676;51.202;6.774;2024-03-23T05:46:43;2.92;;;1.30;;
29774;SDS011;16676;51.202;6.774;2024-03-23T05:50:48;1.55;;;1.00;;
29774;SDS011;16676;51.202;6.774;2024-03-23T05:54:52;2.72;;;1.10;;
29774;SDS011;16676;51.202;6.774;2024-03-23T05:58:54;2.53;;;1.20;;
29774;SDS011;16676;51.202;6.774;2024-03-23T06:02:56;2.17;;;1.20;;
29774;SDS011;16676;51.202;6.774;2024-03-23T06:06:58;2.10;;;1.08;;
29774;SDS011;16676;51.202;6.774;2024-03-23T06:11:02;2.88;;;1.10;;
29774;SDS011;16676;51.202;6.774;2024-03-23T06:15:04;2.20;;;1.10;;
29774;SDS011;16676;51.202;6.774;2024-03-23T06:19:10;1.45;;;0.95;;
29774;SDS011;16676;51.202;6.774;2024-03-23T06:23:12;1.75;;;1.00;;
29774;SDS011;16676;51.202;6.774;2024-03-23T06:27:17;1.90;;;1.10;;
29774;SDS011;16676;51.202;6.774;2024-03-23T06:31:18;2.63;;;1.10;;
29774;SDS011;16676;51.202;6.774;2024-03-23T06:35:20;2.63;;;1.15;;
29774;SDS011;16676;51.202;6.774;2024-03-23T06:39:22;2.25;;;1.38;;
29774;SDS011;16676;51.202;6.774;2024-03-23T06:43:25;1.55;;;1.10;;
29774;SDS011;16676;51.202;6.774;2024-03-23T06:47:26;2.40;;;1.20;;
29774;SDS011;16676;51.202;6.774;2024-03-23T06:51:28;2.88;;;1.15;;
29774;SDS011;16676;51.202;6.774;2024-03-23T06:55:30;2.03;;;1.05;;
29774;SDS011;16676;51.202;6.774;2024-03-23T06:59:33;2.72;;;1.23;;
29774;SDS011;16676;51.202;6.774;2024-03-23T07:03:35;1.67;;;1.13;;
29774;SDS011;16676;51.202;6.774;2024-03-23T07:07:37;2.92;;;1.10;;
29774;SDS011;16676;51.202;6.774;2024-03-23T07:11:40;1.75;;;1.00;;
29774;SDS011;16676;51.202;6.774;2024-03-23T07:15:43;1.55;;;1.05;;
29774;SDS011;16676;51.202;6.774;2024-03-23T07:19:52;2.38;;;1.02;;
29774;SDS011;16676;51.202;6.774;2024-03-23T07:23:54;1.88;;;1.00;;
29774;SDS011;16676;51.202;6.774;2024-03-23T07:27:56;2.47;;;1.13;;
29774;SDS011;16676;51.202;6.774;2024-03-23T07:32:00;1.73;;;1.17;;
29774;SDS011;16676;51.202;6.774;2024-03-23T07:36:02;2.03;;;1.10;;
29774;SDS011;16676;51.202;6.774;2024-03-23T07:40:05;1.52;;;0.93;;
29774;SDS011;16676;51.202;6.774;2024-03-23T07:44:07;2.38;;;1.00;;
29774;SDS011;16676;51.202;6.774;2024-03-23T07:48:11;1.38;;;1.00;;
29774;SDS011;16676;51.202;6.774;2024-03-23T07:52:13;1.10;;;0.73;;
29774;SDS011;16676;51.202;6.774;2024-03-23T07:56:15;3.50;;;1.30;;
29774;SDS011;16676;51.202;6.774;2024-03-23T08:00:19;2.88;;;1.38;;
29774;SDS011;16676;51.202;6.774;2024-03-23T08:04:22;1.67;;;0.95;;
29774;SDS011;16676;51.202;6.774;2024-03-23T08:08:25;1.83;;;1.20;;
29774;SDS011;16676;51.202;6.774;2024-03-23T08:12:27;2.75;;;1.20;;
29774;SDS011;16676;51.202;6.774;2024-03-23T08:16:29;2.00;;;1.20;;
29774;SDS011;16676;51.202;6.774;2024-03-23T08:20:32;1.88;;;0.98;;
29774;SDS011;16676;51.202;6.774;2024-03-23T08:24:34;1.73;;;0.98;;
29774;SDS011;16676;51.202;6.774;2024-03-23T08:28:36;2.50;;;1.10;;
29774;SDS011;16676;51.202;6.774;2024-03-23T08:32:39;1.88;;;0.90;;
29774;SDS011;16676;51.202;6.774;2024-03-23T08:36:42;1.77;;;1.00;;
29774;SDS011;16676;51.202;6.774;2024-03-23T08:40:44;3.25;;;1.10;;
29774;SDS011;16676;51.202;6.774;2024-03-23T08:44:46;1.83;;;1.10;;
29774;SDS011;16676;51.202;6.774;2024-03-23T08:48:49;1.75;;;1.17;;
29774;SDS011;16676;51.202;6.774;2024-03-23T08:52:54;4.00;;;1.10;;
29774;SDS011;16676;51.202;6.774;2024-03-23T08:56:56;2.10;;;1.15;;
29774;SDS011;16676;51.202;6.774;2024-03-23T09:01:02;1.77;;;0.80;;
29774;SDS011;16676;51.202;6.774;2024-03-23T09:05:05;1.30;;;0.65;;
29774;SDS011;16676;51.202;6.774;2024-03-23T09:09:08;1.00;;;0.88;;
29774;SDS011;16676;51.202;6.774;2024-03-23T09:13:10;2.20;;;1.05;;
29774;SDS011;16676;51.202;6.774;2024-03-23T09:17:12;2.30;;;0.80;;
29774;SDS011;16676;51.202;6.774;2024-03-23T09:21:14;1.98;;;0.95;;
29774;SDS011;16676;51.202;6.774;2024-03-23T09:25:18;1.70;;;0.80;;
29774;SDS011;16676;51.202;6.774;2024-03-23T09:29:20;1.30;;;0.93;;
29774;SDS011;16676;51.202;6.774;2024-03-23T09:33:22;1.20;;;0.80;;
29774;SDS011;16676;51.202;6.774;2024-03-23T09:37:24;2.13;;;1.00;;
29774;SDS011;16676;51.202;6.774;2024-03-23T09:41:27;1.38;;;0.80;;
29774;SDS011;16676;51.202;6.774;2024-03-23T09:45:29;1.10;;;0.80;;
29774;SDS011;16676;51.202;6.774;2024-03-23T09:49:31;1.38;;;0.80;;
29774;SDS011;16676;51.202;6.774;2024-03-23T09:53:36;1.70;;;0.77;;
29774;SDS011;16676;51.202;6.774;2024-03-23T09:57:40;1.65;;;0.90;;
29774;SDS011;16676;51.202;6.774;2024-03-23T10:01:42;2.22;;;0.88;;
29774;SDS011;16676;51.202;6.774;2024-03-23T10:05:44;2.50;;;1.10;;
29774;SDS011;16676;51.202;6.774;2024-03-23T10:09:45;2.13;;;0.90;;
29774;SDS011;16676;51.202;6.774;2024-03-23T10:13:49;1.63;;;0.90;;
29774;SDS011;16676;51.202;6.774;2024-03-23T10:17:51;1.60;;;0.90;;
29774;SDS011;16676;51.202;6.774;2024-03-23T10:21:53;1.67;;;0.80;;
29774;SDS011;16676;51.202;6.774;2024-03-23T10:25:55;1.52;;;0.80;;
29774;SDS011;16676;51.202;6.774;2024-03-23T10:30:16;1.40;;;1.08;;
29774;SDS011;16676;51.202;6.774;2024-03-23T10:34:21;2.40;;;0.77;;
29774;SDS011;16676;51.202;6.774;2024-03-23T10:38:26;1.42;;;0.70;;
29774;SDS011;16676;51.202;6.774;2024-03-23T10:42:31;1.50;;;0.70;;
29774;SDS011;16676;51.202;6.774;2024-03-23T10:46:36;1.80;;;1.00;;
29774;SDS011;16676;51.202;6.774;2024-03-23T10:50:38;2.22;;;1.00;;
29774;SDS011;16676;51.202;6.774;2024-03-23T10:54:39;2.03;;;0.75;;
29774;SDS011;16676;51.202;6.774;2024-03-23T10:58:43;0.93;;;0.85;;
29774;SDS011;16676;51.202;6.774;2024-03-23T11:02:49;1.45;;;0.88;;
29774;SDS011;16676;51.202;6.774;2024-03-23T11:06:51;1.10;;;0.80;;
29774;SDS011;16676;51.202;6.774;2024-03-23T11:10:53;2.35;;;1.00;;
29774;SDS011;16676;51.202;6.774;2024-03-23T11:15:04;0.95;;;0.60;;
29774;SDS011;16676;51.202;6.774;2024-03-23T11:23:37;1.73;;;1.08;;
29774;SDS011;16676;51.202;6.774;2024-03-23T11:27:39;1.52;;;0.82;;
29774;SDS011;16676;51.202;6.774;2024-03-23T11:31:45;1.98;;;0.80;;
29774;SDS011;16676;51.202;6.774;2024-03-23T11:35:49;0.98;;;0.80;;
29774;SDS011;16676;51.202;6.774;2024-03-23T11:39:51;1.40;;;0.68;;
29774;SDS011;16676;51.202;6.774;2024-03-23T11:43:53;1.45;;;0.90;;
29774;SDS011;16676;51.202;6.774;2024-03-23T11:48:02;1.42;;;0.75;;
29774;SDS011;16676;51.202;6.774;2024-03-23T11:52:06;1.27;;;0.80;;
29774;SDS011;16676;51.202;6.774;2024-03-23T11:56:08;2.88;;;1.00;;
29774;SDS011;16676;51.202;6.774;2024-03-23T12:00:20;2.20;;;1.20;;
29774;SDS011;16676;51.202;6.774;2024-03-23T12:04:24;1.40;;;0.98;;
29774;SDS011;16676;51.202;6.774;2024-03-23T12:08:30;2.22;;;0.90;;
29774;SDS011;16676;51.202;6.774;2024-03-23T12:12:33;1.60;;;0.77;;
29774;SDS011;16676;51.202;6.774;2024-03-23T12:16:34;1.33;;;0.90;;
29774;SDS011;16676;51.202;6.774;2024-03-23T12:20:36;1.45;;;0.90;;
29774;SDS011;16676;51.202;6.774;2024-03-23T12:24:40;1.48;;;0.77;;
29774;SDS011;16676;51.202;6.774;2024-03-23T12:28:45;1.77;;;1.02;;
29774;SDS011;16676;51.202;6.774;2024-03-23T12:32:47;1.70;;;0.90;;
29774;SDS011;16676;51.202;6.774;2024-03-23T12:36:48;1.85;;;1.00;;
29774;SDS011;16676;51.202;6.774;2024-03-23T12:40:51;1.65;;;0.93;;
29774;SDS011;16676;51.202;6.774;2024-03-23T12:44:53;2.00;;;0.80;;
29774;SDS011;16676;51.202;6.774;2024-03-23T12:48:55;1.40;;;0.73;;
29774;SDS011;16676;51.202;6.774;2024-03-23T12:52:58;1.15;;;0.77;;
29774;SDS011;16676;51.202;6.774;2024-03-23T12:57:02;1.70;;;0.80;;
29774;SDS011;16676;51.202;6.774;2024-03-23T13:01:04;2.20;;;1.02;;
29774;SDS011;16676;51.202;6.774;2024-03-23T13:05:07;1.25;;;0.85;;
29774;SDS011;16676;51.202;6.774;2024-03-23T13:09:10;1.75;;;0.88;;
29774;SDS011;16676;51.202;6.774;2024-03-23T13:13:13;2.22;;;0.85;;
29774;SDS011;16676;51.202;6.774;2024-03-23T13:17:15;1.38;;;0.77;;
29774;SDS011;16676;51.202;6.774;2024-03-23T13:21:17;1.77;;;0.80;;
29774;SDS011;16676;51.202;6.774;2024-03-23T13:25:18;0.82;;;0.60;;
29774;SDS011;16676;51.202;6.774;2024-03-23T13:29:22;1.70;;;0.80;;
29774;SDS011;16676;51.202;6.774;2024-03-23T13:33:25;1.13;;;0.70;;
29774;SDS011;16676;51.202;6.774;2024-03-23T13:37:27;2.35;;;0.93;;
29774;SDS011;16676;51.202;6.774;2024-03-23T13:41:29;1.35;;;0.73;;
29774;SDS011;16676;51.202;6.774;2024-03-23T13:45:31;0.82;;;0.55;;
29774;SDS011;16676;51.202;6.774;2024-03-23T13:49:33;1.95;;;0.90;;
29774;SDS011;16676;51.202;6.774;2024-03-23T13:53:36;1.33;;;0.70;;
29774;SDS011;16676;51.202;6.774;2024-03-23T13:57:38;1.83;;;0.80;;
29774;SDS011;16676;51.202;6.774;2024-03-23T14:01:41;1.23;;;0.70;;
29774;SDS011;16676;51.202;6.774;2024-03-23T14:05:43;0.95;;;0.65;;
29774;SDS011;16676;51.202;6.774;2024-03-23T14:09:47;1.10;;;0.63;;
29774;SDS011;16676;51.202;6.774;2024-03-23T14:13:49;2.33;;;1.00;;
29774;SDS011;16676;51.202;6.774;2024-03-23T14:17:52;3.95;;;1.15;;
29774;SDS011;16676;51.202;6.774;2024-03-23T14:21:54;1.73;;;0.85;;
29774;SDS011;16676;51.202;6.774;2024-03-23T14:25:56;2.15;;;0.70;;
29774;SDS011;16676;51.202;6.774;2024-03-23T14:29:58;1.13;;;0.70;;
29774;SDS011;16676;51.202;6.774;2024-03-23T14:34:02;1.05;;;0.80;;
29774;SDS011;16676;51.202;6.774;2024-03-23T14:38:04;2.53;;;0.90;;
29774;SDS011;16676;51.202;6.774;2024-03-23T14:42:06;1.40;;;0.80;;
29774;SDS011;16676;51.202;6.774;2024-03-23T14:46:08;1.55;;;0.85;;
29774;SDS011;16676;51.202;6.774;2024-03-23T14:50:14;1.52;;;0.70;;
29774;SDS011;16676;51.202;6.774;2024-03-23T14:54:16;1.48;;;0.73;;
29774;SDS011;16676;51.202;6.774;2024-03-23T14:58:18;1.20;;;0.70;;
29774;SDS011;16676;51.202;6.774;2024-03-23T15:02:20;2.13;;;0.60;;
29774;SDS011;16676;51.202;6.774;2024-03-23T15:06:24;0.57;;;0.43;;
29774;SDS011;16676;51.202;6.774;2024-03-23T15:10:26;1.52;;;0.70;;
29774;SDS011;16676;51.202;6.774;2024-03-23T15:14:28;2.13;;;0.85;;
29774;SDS011;16676;51.202;6.774;2024-03-23T15:18:29;1.05;;;0.60;;
29774;SDS011;16676;51.202;6.774;2024-03-23T15:22:33;1.20;;;0.68;;
29774;SDS011;16676;51.202;6.774;2024-03-23T15:26:35;1.67;;;0.68;;
29774;SDS011;16676;51.202;6.774;2024-03-23T15:30:36;1.38;;;0.70;;
29774;SDS011;16676;51.202;6.774;2024-03-23T15:34:38;2.22;;;0.80;;
29774;SDS011;16676;51.202;6.774;2024-03-23T15:38:41;0.82;;;0.40;;
29774;SDS011;16676;51.202;6.774;2024-03-23T15:42:43;0.98;;;0.63;;
29774;SDS011;16676;51.202;6.774;2024-03-23T15:46:45;3.42;;;0.55;;
29774;SDS011;16676;51.202;6.774;2024-03-23T15:50:50;1.35;;;0.57;;
29774;SDS011;16676;51.202;6.774;2024-03-23T15:54:55;1.17;;;0.63;;
29774;SDS011;16676;51.202;6.774;2024-03-23T15:58:58;0.70;;;0.45;;
29774;SDS011;16676;51.202;6.774;2024-03-23T16:03:05;1.30;;;0.80;;
29774;SDS011;16676;51.202;6.774;2024-03-23T16:07:08;1.00;;;0.60;;
29774;SDS011;16676;51.202;6.774;2024-03-23T16:11:11;0.70;;;0.57;;
29774;SDS011;16676;51.202;6.774;2024-03-23T16:15:13;1.00;;;0.50;;
29774;SDS011;16676;51.202;6.774;2024-03-23T16:19:15;1.65;;;0.63;;
29774;SDS011;16676;51.202;6.774;2024-03-23T16:23:17;1.13;;;0.75;;
29774;SDS011;16676;51.202;6.774;2024-03-23T16:27:21;1.35;;;0.65;;
29774;SDS011;16676;51.202;6.774;2024-03-23T16:31:23;1.00;;;0.55;;
29774;SDS011;16676;51.202;6.774;2024-03-23T16:35:25;0.93;;;0.45;;
29774;SDS011;16676;51.202;6.774;2024-03-23T16:39:27;0.98;;;0.50;;
29774;SDS011;16676;51.202;6.774;2024-03-23T16:43:30;0.50;;;0.50;;
29774;SDS011;16676;51.202;6.774;2024-03-23T16:47:32;0.80;;;0.50;;
29774;SDS011;16676;51.202;6.774;2024-03-23T16:51:34;1.02;;;0.47;;
29774;SDS011;16676;51.202;6.774;2024-03-23T16:55:36;1.42;;;0.50;;
29774;SDS011;16676;51.202;6.774;2024-03-23T16:59:39;1.45;;;0.70;;
29774;SDS011;16676;51.202;6.774;2024-03-23T17:03:41;2.70;;;0.47;;
29774;SDS011;16676;51.202;6.774;2024-03-23T17:07:44;0.82;;;0.60;;
29774;SDS011;16676;51.202;6.774;2024-03-23T17:11:46;0.70;;;0.50;;
29774;SDS011;16676;51.202;6.774;2024-03-23T17:15:51;1.00;;;0.63;;
29774;SDS011;16676;51.202;6.774;2024-03-23T17:19:58;1.15;;;0.60;;
29774;SDS011;16676;51.202;6.774;2024-03-23T17:24:00;1.38;;;0.60;;
29774;SDS011;16676;51.202;6.774;2024-03-23T17:28:02;1.48;;;0.50;;
29774;SDS011;16676;51.202;6.774;2024-03-23T17:32:06;2.15;;;0.50;;
29774;SDS011;16676;51.202;6.774;2024-03-23T17:36:09;0.82;;;0.50;;
29774;SDS011;16676;51.202;6.774;2024-03-23T17:40:11;1.13;;;0.57;;
29774;SDS011;16676;51.202;6.774;2024-03-23T17:44:13;0.60;;;0.50;;
29774;SDS011;16676;51.202;6.774;2024-03-23T17:48:15;1.05;;;0.50;;
29774;SDS011;16676;51.202;6.774;2024-03-23T17:52:17;0.88;;;0.52;;
29774;SDS011;16676;51.202;6.774;2024-03-23T17:56:19;1.58;;;0.63;;
29774;SDS011;16676;51.202;6.774;2024-03-23T18:00:22;0.93;;;0.57;;
29774;SDS011;16676;51.202;6.774;2024-03-23T18:04:25;1.15;;;0.57;;
29774;SDS011;16676;51.202;6.774;2024-03-23T18:08:27;1.35;;;0.52;;
29774;SDS011;16676;51.202;6.774;2024-03-23T18:12:29;0.93;;;0.57;;
29774;SDS011;16676;51.202;6.774;2024-03-23T18:16:32;1.55;;;0.60;;
29774;SDS011;16676;51.202;6.774;2024-03-23T18:20:35;0.70;;;0.60;;
29774;SDS011;16676;51.202;6.774;2024-03-23T18:24:37;0.22;;;0.20;;
29774;SDS011;16676;51.202;6.774;2024-03-23T18:28:39;0.85;;;0.43;;
29774;SDS011;16676;51.202;6.774;2024-03-23T18:32:41;1.42;;;0.60;;
29774;SDS011;16676;51.202;6.774;2024-03-23T18:36:44;1.63;;;0.50;;
29774;SDS011;16676;51.202;6.774;2024-03-23T18:40:46;0.47;;;0.30;;
29774;SDS011;16676;51.202;6.774;2024-03-23T18:44:49;1.30;;;0.57;;
29774;SDS011;16676;51.202;6.774;2024-03-23T18:48:50;1.35;;;0.50;;
29774;SDS011;16676;51.202;6.774;2024-03-23T18:52:54;1.10;;;0.50;;
29774;SDS011;16676;51.202;6.774;2024-03-23T18:56:56;0.88;;;0.50;;
29774;SDS011;16676;51.202;6.774;2024-03-23T19:00:58;1.02;;;0.40;;
29774;SDS011;16676;51.202;6.774;2024-03-23T19:05:03;1.60;;;0.60;;
29774;SDS011;16676;51.202;6.774;2024-03-23T19:09:07;2.00;;;0.60;;
29774;SDS011;16676;51.202;6.774;2024-03-23T19:13:10;1.67;;;0.70;;
29774;SDS011;16676;51.202;6.774;2024-03-23T19:17:12;1.77;;;0.60;;
29774;SDS011;16676;51.202;6.774;2024-03-23T19:21:14;0.57;;;0.35;;
29774;SDS011;16676;51.202;6.774;2024-03-23T19:25:17;1.13;;;0.30;;
29774;SDS011;16676;51.202;6.774;2024-03-23T19:29:19;0.85;;;0.50;;
29774;SDS011;16676;51.202;6.774;2024-03-23T19:33:21;0.93;;;0.50;;
29774;SDS011;16676;51.202;6.774;2024-03-23T19:37:24;0.82;;;0.45;;
29774;SDS011;16676;51.202;6.774;2024-03-23T19:41:27;0.73;;;0.40;;
29774;SDS011;16676;51.202;6.774;2024-03-23T19:45:29;1.27;;;0.52;;
29774;SDS011;16676;51.202;6.774;2024-03-23T19:49:31;0.35;;;0.22;;
29774;SDS011;16676;51.202;6.774;2024-03-23T19:53:33;1.52;;;0.60;;
29774;SDS011;16676;51.202;6.774;2024-03-23T19:57:37;1.27;;;0.47;;
29774;SDS011;16676;51.202;6.774;2024-03-23T20:01:40;0.60;;;0.45;;
29774;SDS011;16676;51.202;6.774;2024-03-23T20:05:42;2.28;;;0.73;;
29774;SDS011;16676;51.202;6.774;2024-03-23T20:09:45;1.08;;;0.57;;
29774;SDS011;16676;51.202;6.774;2024-03-23T20:13:50;0.70;;;0.55;;
29774;SDS011;16676;51.202;6.774;2024-03-23T20:17:52;1.00;;;0.47;;
29774;SDS011;16676;51.202;6.774;2024-03-23T20:21:54;0.70;;;0.45;;
29774;SDS011;16676;51.202;6.774;2024-03-23T20:25:57;1.73;;;0.47;;
29774;SDS011;16676;51.202;6.774;2024-03-23T20:30:01;0.73;;;0.52;;
29774;SDS011;16676;51.202;6.774;2024-03-23T20:34:04;1.52;;;0.60;;
29774;SDS011;16676;51.202;6.774;2024-03-23T20:38:07;1.17;;;0.60;;
29774;SDS011;16676;51.202;6.774;2024-03-23T20:42:09;1.30;;;0.60;;
29774;SDS011;16676;51.202;6.774;2024-03-23T20:46:13;0.95;;;0.57;;
29774;SDS011;16676;51.202;6.774;2024-03-23T20:50:15;1.52;;;0.57;;
29774;SDS011;16676;51.202;6.774;2024-03-23T20:54:17;0.80;;;0.43;;
29774;SDS011;16676;51.202;6.774;2024-03-23T20:58:19;1.15;;;0.70;;
29774;SDS011;16676;51.202;6.774;2024-03-23T21:02:23;1.20;;;0.57;;
29774;SDS011;16676;51.202;6.774;2024-03-23T21:06:25;2.17;;;0.50;;
29774;SDS011;16676;51.202;6.774;2024-03-23T21:10:27;0.73;;;0.40;;
29774;SDS011;16676;51.202;6.774;2024-03-23T21:14:29;1.25;;;0.52;;
29774;SDS011;16676;51.202;6.774;2024-03-23T21:18:32;1.08;;;0.52;;
29774;SDS011;16676;51.202;6.774;2024-03-23T21:22:36;0.70;;;0.52;;
29774;SDS011;16676;51.202;6.774;2024-03-23T21:26:38;1.45;;;0.60;;
29774;SDS011;16676;51.202;6.774;2024-03-23T21:30:40;1.55;;;0.70;;
29774;SDS011;16676;51.202;6.774;2024-03-23T21:34:44;0.80;;;0.47;;
29774;SDS011;16676;51.202;6.774;2024-03-23T21:38:45;0.90;;;0.50;;
29774;SDS011;16676;51.202;6.774;2024-03-23T21:42:47;1.17;;;0.40;;
29774;SDS011;16676;51.202;6.774;2024-03-23T21:46:49;1.08;;;0.50;;
29774;SDS011;16676;51.202;6.774;2024-03-23T21:50:51;0.95;;;0.40;;
29774;SDS011;16676;51.202;6.774;2024-03-23T21:54:53;0.80;;;0.38;;
29774;SDS011;16676;51.202;6.774;2024-03-23T21:58:57;1.70;;;0.70;;
29774;SDS011;16676;51.202;6.774;2024-03-23T22:02:59;0.98;;;0.50;;
29774;SDS011;16676;51.202;6.774;2024-03-23T22:07:03;1.33;;;0.40;;
29774;SDS011;16676;51.202;6.774;2024-03-23T22:11:05;1.45;;;0.57;;
29774;SDS011;16676;51.202;6.774;2024-03-23T22:15:07;0.88;;;0.40;;
29774;SDS011;16676;51.202;6.774;2024-03-23T22:19:10;0.52;;;0.47;;
29774;SDS011;16676;51.202;6.774;2024-03-23T22:23:13;1.50;;;0.50;;
29774;SDS011;16676;51.202;6.774;2024-03-23T22:27:15;1.50;;;0.50;;
29774;SDS011;16676;51.202;6.774;2024-03-23T22:31:17;1.00;;;0.50;;
29774;SDS011;16676;51.202;6.774;2024-03-23T22:35:19;1.38;;;0.60;;
29774;SDS011;16676;51.202;6.774;2024-03-23T22:39:23;1.85;;;0.50;;
29774;SDS011;16676;51.202;6.774;2024-03-23T22:43:25;1.33;;;0.60;;
29774;SDS011;16676;51.202;6.774;2024-03-23T22:47:27;0.60;;;0.35;;
29774;SDS011;16676;51.202;6.774;2024-03-23T22:51:29;1.42;;;0.65;;
29774;SDS011;16676;51.202;6.774;2024-03-23T22:55:33;1.30;;;0.50;;
29774;SDS011;16676;51.202;6.774;2024-03-23T22:59:35;2.00;;;0.50;;
29774;SDS011;16676;51.202;6.774;2024-03-23T23:03:37;0.90;;;0.50;;
29774;SDS011;16676;51.202;6.774;2024-03-23T23:07:39;0.80;;;0.47;;
29774;SDS011;16676;51.202;6.774;2024-03-23T23:11:42;1.23;;;0.73;;
29774;SDS011;16676;51.202;6.774;2024-03-23T23:15:44;1.05;;;0.60;;
29774;SDS011;16676;51.202;6.774;2024-03-23T23:19:46;0.75;;;0.50;;
29774;SDS011;16676;51.202;6.774;2024-03-23T23:23:48;1.02;;;0.55;;
29774;SDS011;16676;51.202;6.774;2024-03-23T23:27:51;1.15;;;0.50;;
29774;SDS011;16676;51.202;6.774;2024-03-23T23:31:53;1.85;;;0.80;;
29774;SDS011;16676;51.202;6.774;2024-03-23T23:35:56;1.27;;;0.50;;
29774;SDS011;16676;51.202;6.774;2024-03-23T23:39:58;1.67;;;0.70;;
29774;SDS011;16676;51.202;6.774;2024-03-23T23:44:02;1.17;;;0.55;;
29774;SDS011;16676;51.202;6.774;2024-03-23T23:48:06;1.20;;;0.30;;
29774;SDS011;16676;51.202;6.774;2024-03-23T23:52:08;0.32;;;0.30;;
29774;SDS011;16676;51.202;6.774;2024-03-23T23:56:10;0.98;;;0.45;;
